Time,TemperatureF,DewpointF,PressureIn,WindDirection,WindDirectionDegrees,WindSpeedMPH,WindSpeedGustMPH,Humidity,HourlyPrecipIn,Conditions,Clouds,dailyrainin,SoftwareType,DateUTC
2013-03-10 00:05:00,24.2,13.0,30.30,SE,134,0.0,4.0,62,0.00,,,0.00,weatherlink.com 1.10,2013-03-10 07:05:00,
2013-03-10 00:20:00,23.7,13.0,30.30,SE,134,0.0,1.0,64,0.00,,,0.00,weatherlink.com 1.10,2013-03-10 07:20:00,
2013-03-10 00:35:00,23.3,12.0,30.31,SE,134,2.0,2.0,62,0.00,,,0.00,weatherlink.com 1.10,2013-03-10 07:35:00,
2013-03-10 00:50:00,21.2,11.0,30.30,SE,134,4.0,5.0,64,0.00,,,0.00,weatherlink.com 1.10,2013-03-10 07:50:00,
2013-03-10 01:05:00,20.9,11.0,30.30,SE,134,0.0,3.0,66,0.00,,,0.00,weatherlink.com 1.10,2013-03-10 08:05:00,
2013-03-10 01:20:00,19.6,10.0,30.30,SE,134,1.0,3.0,67,0.00,,,0.00,weatherlink.com 1.10,2013-03-10 08:20:00,
2013-03-10 01:35:00,19.6,11.0,30.30,SE,134,0.0,1.0,69,0.00,,,0.00,weatherlink.com 1.10,2013-03-10 08:35:00,
2013-03-10 01:50:00,19.6,11.0,30.30,SE,134,1.0,3.0,69,0.00,,,0.00,weatherlink.com 1.10,2013-03-10 08:50:00,
2013-03-10 03:05:00,18.8,10.0,30.30,SE,134,2.0,3.0,69,0.00,,,0.00,weatherlink.com 1.10,2013-03-10 09:05:00,
2013-03-10 03:20:00,19.0,11.0,30.30,SE,134,4.0,4.0,72,0.00,,,0.00,weatherlink.com 1.10,2013-03-10 09:20:00,
2013-03-10 03:35:00,19.1,12.0,30.29,SE,134,5.0,5.0,73,0.00,,,0.00,weatherlink.com 1.10,2013-03-10 09:35:00,
2013-03-10 03:50:00,20.3,13.0,30.29,SE,134,5.0,6.0,72,0.00,,,0.00,weatherlink.com 1.10,2013-03-10 09:50:00,
2013-03-10 04:05:00,19.1,12.0,30.29,SE,134,3.0,4.0,73,0.00,,,0.00,weatherlink.com 1.10,2013-03-10 10:05:00,
2013-03-10 04:21:00,18.3,11.0,30.29,SE,134,2.0,3.0,73,0.00,,,0.00,weatherlink.com 1.10,2013-03-10 10:21:00,
2013-03-10 04:36:00,18.5,10.0,30.29,SE,134,0.0,3.0,69,0.00,,,0.00,weatherlink.com 1.10,2013-03-10 10:36:00,
2013-03-10 04:51:00,16.7,9.0,30.29,SE,134,0.0,3.0,73,0.00,,,0.00,weatherlink.com 1.10,2013-03-10 10:51:00,
2013-03-10 05:06:00,16.6,10.0,30.30,SE,134,2.0,2.0,75,0.00,,,0.00,weatherlink.com 1.10,2013-03-10 11:06:00,
2013-03-10 05:21:00,17.2,11.0,30.31,SE,134,0.0,2.0,76,0.00,,,0.00,weatherlink.com 1.10,2013-03-10 11:21:00,
2013-03-10 05:36:00,17.5,11.0,30.30,SE,134,4.0,6.0,77,0.00,,,0.00,weatherlink.com 1.10,2013-03-10 11:36:00,
2013-03-10 05:51:00,18.0,11.0,30.30,SE,134,2.0,5.0,74,0.00,,,0.00,weatherlink.com 1.10,2013-03-10 11:51:00,
2013-03-10 06:06:00,18.3,12.0,30.30,SE,134,0.0,4.0,77,0.00,,,0.00,weatherlink.com 1.10,2013-03-10 12:06:00,
2013-03-10 06:21:00,18.0,13.0,30.29,SE,134,0.0,5.0,79,0.00,,,0.00,weatherlink.com 1.10,2013-03-10 12:21:00,
2013-03-10 06:36:00,17.1,10.0,30.30,SE,134,3.0,4.0,75,0.00,,,0.00,weatherlink.com 1.10,2013-03-10 12:36:00,
2013-03-10 06:51:00,16.4,10.0,30.29,SE,134,3.0,3.0,76,0.00,,,0.00,weatherlink.com 1.10,2013-03-10 12:51:00,
2013-03-10 07:06:00,16.2,10.0,30.31,SE,134,0.0,4.0,77,0.00,,,0.00,weatherlink.com 1.10,2013-03-10 13:06:00,
2013-03-10 07:21:00,16.5,11.0,30.31,SE,134,0.0,2.0,78,0.00,,,0.00,weatherlink.com 1.10,2013-03-10 13:21:00,
2013-03-10 07:36:00,16.9,11.0,30.32,SE,134,0.0,0.0,78,0.00,,,0.00,weatherlink.com 1.10,2013-03-10 13:36:00,
2013-03-10 07:51:00,16.2,10.0,30.33,SE,134,3.0,5.0,76,0.00,,,0.00,weatherlink.com 1.10,2013-03-10 13:51:00,
2013-03-10 08:06:00,16.0,10.0,30.33,SE,134,3.0,5.0,78,0.00,,,0.00,weatherlink.com 1.10,2013-03-10 14:06:00,
2013-03-10 08:21:00,17.3,12.0,30.33,SE,134,4.0,6.0,78,0.00,,,0.00,weatherlink.com 1.10,2013-03-10 14:21:00,
2013-03-10 08:36:00,21.1,15.0,30.32,SE,134,0.0,3.0,77,0.00,,,0.00,weatherlink.com 1.10,2013-03-10 14:36:00,
2013-03-10 08:51:00,24.5,17.0,30.32,SE,134,2.0,4.0,72,0.00,,,0.00,weatherlink.com 1.10,2013-03-10 14:51:00,
2013-03-10 09:06:00,27.1,18.0,30.31,SE,134,0.0,4.0,68,0.00,,,0.00,weatherlink.com 1.10,2013-03-10 15:06:00,
2013-03-10 09:21:00,29.6,18.0,30.31,SE,134,0.0,3.0,63,0.00,,,0.00,weatherlink.com 1.10,2013-03-10 15:21:00,
2013-03-10 09:36:00,32.8,19.0,30.30,SE,134,0.0,3.0,57,0.00,,,0.00,weatherlink.com 1.10,2013-03-10 15:36:00,
2013-03-10 09:51:00,34.3,19.0,30.30,SE,134,1.0,4.0,53,0.00,,,0.00,weatherlink.com 1.10,2013-03-10 15:51:00,
2013-03-10 10:06:00,34.3,19.0,30.30,ESE,107,8.0,10.0,53,0.00,,,0.00,weatherlink.com 1.10,2013-03-10 16:06:00,
2013-03-10 10:21:00,35.0,18.0,30.30,NE,43,8.0,11.0,50,0.00,,,0.00,weatherlink.com 1.10,2013-03-10 16:21:00,
2013-03-10 10:37:00,37.0,18.0,30.29,NE,43,6.0,7.0,46,0.00,,,0.00,weatherlink.com 1.10,2013-03-10 16:37:00,
2013-03-10 10:52:00,39.8,15.0,30.29,NE,43,6.0,8.0,37,0.00,,,0.00,weatherlink.com 1.10,2013-03-10 16:52:00,
2013-03-10 11:07:00,41.6,16.0,30.28,NE,43,4.0,9.0,35,0.00,,,0.00,weatherlink.com 1.10,2013-03-10 17:07:00,
2013-03-10 11:22:00,42.7,16.0,30.28,NE,43,7.0,10.0,34,0.00,,,0.00,weatherlink.com 1.10,2013-03-10 17:22:00,
2013-03-10 11:37:00,43.6,16.0,30.28,NE,42,6.0,10.0,33,0.00,,,0.00,weatherlink.com 1.10,2013-03-10 17:37:00,
2013-03-10 11:52:00,44.6,16.0,30.28,NE,34,9.0,11.0,32,0.00,,,0.00,weatherlink.com 1.10,2013-03-10 17:52:00,
2013-03-10 12:07:00,45.7,15.0,30.26,NE,35,7.0,11.0,29,0.00,,,0.00,weatherlink.com 1.10,2013-03-10 18:07:00,
2013-03-10 12:22:00,47.0,14.0,30.26,East,89,9.0,11.0,27,0.00,,,0.00,weatherlink.com 1.10,2013-03-10 18:22:00,
2013-03-10 12:37:00,46.6,14.0,30.25,East,97,6.0,11.0,27,0.00,,,0.00,weatherlink.com 1.10,2013-03-10 18:37:00,
2013-03-10 12:52:00,47.5,15.0,30.24,SE,136,6.0,8.0,27,0.00,,,0.00,weatherlink.com 1.10,2013-03-10 18:52:00,
2013-03-10 13:07:00,48.1,16.0,30.23,ESE,123,5.0,10.0,28,0.00,,,0.00,weatherlink.com 1.10,2013-03-10 19:07:00,
2013-03-10 13:22:00,48.3,16.0,30.22,East,96,1.0,11.0,27,0.00,,,0.00,weatherlink.com 1.10,2013-03-10 19:22:00,
2013-03-10 13:37:00,49.0,16.0,30.21,East,94,5.0,11.0,27,0.00,,,0.00,weatherlink.com 1.10,2013-03-10 19:37:00,
2013-03-10 13:52:00,49.6,17.0,30.20,East,98,8.0,16.0,27,0.00,,,0.00,weatherlink.com 1.10,2013-03-10 19:52:00,
2013-03-10 14:07:00,50.0,17.0,30.18,East,92,11.0,11.0,27,0.00,,,0.00,weatherlink.com 1.10,2013-03-10 20:07:00,
2013-03-10 14:22:00,50.9,17.0,30.18,East,92,6.0,12.0,26,0.00,,,0.00,weatherlink.com 1.10,2013-03-10 20:22:00,
2013-03-10 14:37:00,51.5,17.0,30.17,ESE,103,8.0,13.0,25,0.00,,,0.00,weatherlink.com 1.10,2013-03-10 20:37:00,
2013-03-10 14:52:00,51.9,17.0,30.15,East,81,8.0,13.0,25,0.00,,,0.00,weatherlink.com 1.10,2013-03-10 20:52:00,
2013-03-10 15:07:00,52.4,16.0,30.15,East,84,2.0,14.0,24,0.00,,,0.00,weatherlink.com 1.10,2013-03-10 21:07:00,
2013-03-10 15:23:00,52.3,16.0,30.14,ENE,68,3.0,11.0,24,0.00,,,0.00,weatherlink.com 1.10,2013-03-10 21:23:00,
2013-03-10 15:38:00,52.3,16.0,30.14,ENE,69,8.0,12.0,24,0.00,,,0.00,weatherlink.com 1.10,2013-03-10 21:38:00,
2013-03-10 15:53:00,52.2,17.0,30.13,NE,51,9.0,16.0,25,0.00,,,0.00,weatherlink.com 1.10,2013-03-10 21:53:00,
2013-03-10 16:08:00,52.1,17.0,30.13,ENE,59,13.0,17.0,25,0.00,,,0.00,weatherlink.com 1.10,2013-03-10 22:08:00,
2013-03-10 16:23:00,52.2,17.0,30.13,ENE,69,7.0,14.0,25,0.00,,,0.00,weatherlink.com 1.10,2013-03-10 22:23:00,
2013-03-10 16:38:00,51.7,17.0,30.13,ENE,62,11.0,14.0,25,0.00,,,0.00,weatherlink.com 1.10,2013-03-10 22:38:00,
2013-03-10 16:53:00,51.7,18.0,30.13,ENE,65,10.0,14.0,26,0.00,,,0.00,weatherlink.com 1.10,2013-03-10 22:53:00,
2013-03-10 17:08:00,51.1,18.0,30.12,ENE,57,7.0,14.0,27,0.00,,,0.00,weatherlink.com 1.10,2013-03-10 23:08:00,
2013-03-10 17:23:00,50.6,18.0,30.11,ENE,76,9.0,12.0,27,0.00,,,0.00,weatherlink.com 1.10,2013-03-10 23:23:00,
2013-03-10 17:38:00,50.3,17.0,30.11,ENE,77,5.0,10.0,27,0.00,,,0.00,weatherlink.com 1.10,2013-03-10 23:38:00,
2013-03-10 17:53:00,49.8,18.0,30.11,ENE,69,5.0,12.0,28,0.00,,,0.00,weatherlink.com 1.10,2013-03-10 23:53:00,
2013-03-10 18:08:00,49.6,18.0,30.10,ENE,67,8.0,12.0,28,0.00,,,0.00,weatherlink.com 1.10,2013-03-11 00:08:00,
2013-03-10 18:23:00,49.0,18.0,30.10,ENE,70,10.0,12.0,29,0.00,,,0.00,weatherlink.com 1.10,2013-03-11 00:23:00,
2013-03-10 18:38:00,48.4,18.0,30.11,ENE,72,7.0,10.0,30,0.00,,,0.00,weatherlink.com 1.10,2013-03-11 00:38:00,
2013-03-10 18:53:00,47.3,18.0,30.11,ENE,72,4.0,5.0,31,0.00,,,0.00,weatherlink.com 1.10,2013-03-11 00:53:00,
2013-03-10 19:08:00,46.4,18.0,30.11,ENE,72,0.0,4.0,32,0.00,,,0.00,weatherlink.com 1.10,2013-03-11 01:08:00,
2013-03-10 19:23:00,45.5,18.0,30.11,East,95,7.0,10.0,33,0.00,,,0.00,weatherlink.com 1.10,2013-03-11 01:23:00,
2013-03-10 19:38:00,45.2,18.0,30.11,East,98,6.0,10.0,34,0.00,,,0.00,weatherlink.com 1.10,2013-03-11 01:38:00,
2013-03-10 19:53:00,44.1,18.0,30.11,East,98,3.0,7.0,35,0.00,,,0.00,weatherlink.com 1.10,2013-03-11 01:53:00,
2013-03-10 20:08:00,44.2,18.0,30.11,East,98,1.0,5.0,35,0.00,,,0.00,weatherlink.com 1.10,2013-03-11 02:08:00,
2013-03-10 20:23:00,43.0,18.0,30.10,East,98,6.0,6.0,36,0.00,,,0.00,weatherlink.com 1.10,2013-03-11 02:23:00,
2013-03-10 20:38:00,42.2,17.0,30.10,East,98,7.0,8.0,37,0.00,,,0.00,weatherlink.com 1.10,2013-03-11 02:38:00,
2013-03-10 20:53:00,41.3,17.0,30.10,East,98,6.0,8.0,38,0.00,,,0.00,weatherlink.com 1.10,2013-03-11 02:53:00,
2013-03-10 21:08:00,41.1,17.0,30.09,East,98,7.0,7.0,38,0.00,,,0.00,weatherlink.com 1.10,2013-03-11 03:08:00,
2013-03-10 21:23:00,40.6,18.0,30.09,East,96,8.0,9.0,40,0.00,,,0.00,weatherlink.com 1.10,2013-03-11 03:23:00,
2013-03-10 21:38:00,40.4,18.0,30.09,East,86,5.0,7.0,40,0.00,,,0.00,weatherlink.com 1.10,2013-03-11 03:38:00,
2013-03-10 21:53:00,41.1,18.0,30.08,East,86,8.0,9.0,40,0.00,,,0.00,weatherlink.com 1.10,2013-03-11 03:53:00,
2013-03-10 22:08:00,41.5,18.0,30.08,ENE,60,2.0,5.0,39,0.00,,,0.00,weatherlink.com 1.10,2013-03-11 04:08:00,
2013-03-10 22:23:00,40.7,19.0,30.08,NW,306,8.0,10.0,41,0.00,,,0.00,weatherlink.com 1.10,2013-03-11 04:23:00,
2013-03-10 22:38:00,48.6,18.0,30.07,West,261,23.0,28.0,30,0.00,,,0.00,weatherlink.com 1.10,2013-03-11 04:38:00,
2013-03-10 22:53:00,49.2,17.0,30.06,West,261,14.0,26.0,28,0.00,,,0.00,weatherlink.com 1.10,2013-03-11 04:53:00,
2013-03-10 23:08:00,48.8,16.0,30.06,SW,225,15.0,25.0,27,0.00,,,0.00,weatherlink.com 1.10,2013-03-11 05:08:00,
2013-03-10 23:23:00,48.7,16.0,30.05,WNW,288,13.0,21.0,27,0.00,,,0.00,weatherlink.com 1.10,2013-03-11 05:23:00,
2013-03-10 23:38:00,47.7,16.0,30.06,WNW,288,21.0,33.0,28,0.00,,,0.00,weatherlink.com 1.10,2013-03-11 05:38:00,
2013-03-10 23:53:00,47.3,17.0,30.05,WSW,238,15.0,40.0,30,0.00,,,0.00,weatherlink.com 1.10,2013-03-11 05:53:00,